Time;durP1;ratioP1;P1;durP2;ratioP2;P2;SDS_P1;SDS_P2;PMS_P1;PMS_P2;Temp;Humidity;BMP_temperature;BMP_pressure;BME280_temperature;BME280_humidity;BME280_pressure;Samples;Min_cycle;Max_cycle;Signal;HPM_P1;HPM_P2
2022/11/09 00:00:10;;;;;;;6.18;3.90;;;;;;;6.37;84.30;96078.16;5073426;28;20051;-94
2022/11/09 00:02:36;;;;;;;6.82;3.72;;;;;;;6.34;84.83;96076.03;5074762;28;20568;-94
2022/11/09 00:05:04;;;;;;;5.32;3.35;;;;;;;6.32;84.86;96075.53;5074350;28;20044;-94
2022/11/09 00:07:31;;;;;;;7.20;4.18;;;;;;;6.31;84.80;96084.72;5075008;28;20124;-93
2022/11/09 00:09:59;;;;;;;5.63;3.53;;;;;;;6.27;85.28;96067.53;5075536;28;20499;-94
2022/11/09 00:12:26;;;;;;;5.68;3.90;;;;;;;6.27;85.66;96065.63;5076473;28;20048;-94
2022/11/09 00:14:52;;;;;;;5.32;3.40;;;;;;;6.25;85.90;96069.69;5081161;28;20107;-93
2022/11/09 00:17:19;;;;;;;7.05;3.50;;;;;;;6.24;85.84;96073.50;5078401;28;20045;-94
2022/11/09 00:19:46;;;;;;;5.05;3.22;;;;;;;6.20;86.18;96067.88;5072141;28;20105;-94
2022/11/09 00:22:12;;;;;;;5.28;3.38;;;;;;;6.19;86.15;96069.00;5063852;28;20049;-94
2022/11/09 00:24:39;;;;;;;8.07;3.55;;;;;;;6.18;86.09;96063.88;5056842;28;20041;-95
2022/11/09 00:27:06;;;;;;;5.50;3.67;;;;;;;6.17;86.12;96062.28;5055110;28;20052;-94
2022/11/09 00:29:33;;;;;;;4.60;3.22;;;;;;;6.15;86.15;96064.47;5054642;28;20067;-94
2022/11/09 00:32:00;;;;;;;5.45;3.45;;;;;;;6.13;86.02;96072.88;5054655;28;20052;-93
2022/11/09 00:34:26;;;;;;;5.15;3.20;;;;;;;6.10;85.34;96078.88;5053206;28;20509;-94
2022/11/09 00:36:53;;;;;;;6.22;3.38;;;;;;;6.07;85.22;96078.69;5054668;28;20044;-95
2022/11/09 00:39:19;;;;;;;5.22;3.53;;;;;;;6.03;85.23;96083.06;5054409;28;20041;-94
2022/11/09 00:41:46;;;;;;;6.18;3.60;;;;;;;5.94;85.60;96091.81;5053997;28;20051;-94
2022/11/09 00:44:14;;;;;;;5.88;3.10;;;;;;;5.86;85.98;96084.38;5053785;28;20044;-94
2022/11/09 00:46:40;;;;;;;5.90;3.80;;;;;;;5.87;86.11;96080.56;5053982;28;20041;-94
2022/11/09 00:49:07;;;;;;;7.63;3.75;;;;;;;5.91;86.82;96076.22;5052574;28;20421;-94
2022/11/09 00:51:34;;;;;;;6.15;3.60;;;;;;;5.95;86.71;96065.59;5053779;28;20045;-93
2022/11/09 00:54:00;;;;;;;5.25;3.33;;;;;;;5.95;86.78;96063.72;5053995;28;20044;-95
2022/11/09 00:56:27;;;;;;;5.03;3.40;;;;;;;5.94;86.75;96069.41;5053242;28;20123;-94
2022/11/09 00:58:55;;;;;;;5.38;3.42;;;;;;;5.94;86.97;96069.41;5053945;28;20685;-93
2022/11/09 01:01:24;;;;;;;5.30;3.28;;;;;;;5.94;86.88;96070.22;5053205;28;20052;-94
2022/11/09 01:03:51;;;;;;;4.63;3.05;;;;;;;5.94;86.98;96075.63;5062125;28;20078;-94
2022/11/09 01:06:20;;;;;;;4.82;3.08;;;;;;;5.93;86.51;96068.59;5072714;28;20412;-94
2022/11/09 01:08:47;;;;;;;5.13;3.08;;;;;;;5.89;86.17;96056.75;5073556;28;20051;-95
2022/11/09 01:11:14;;;;;;;6.38;2.90;;;;;;;5.89;86.31;96051.34;5072715;28;20075;-93
2022/11/09 01:13:41;;;;;;;5.82;3.15;;;;;;;5.90;86.75;96062.94;5073663;28;20043;-94
2022/11/09 01:16:10;;;;;;;5.50;3.67;;;;;;;5.90;86.92;96062.94;5072563;28;20385;-93
2022/11/09 01:18:39;;;;;;;5.78;3.28;;;;;;;5.91;87.10;96060.00;5073132;28;20036;-95
2022/11/09 01:21:08;;;;;;;5.22;3.20;;;;;;;5.93;87.12;96052.38;5073169;28;20102;-94
2022/11/09 01:23:35;;;;;;;5.20;3.17;;;;;;;5.93;86.87;96057.00;5073325;28;20052;-94
2022/11/09 01:26:04;;;;;;;4.32;3.08;;;;;;;5.90;86.67;96046.72;5072774;28;20056;-94
2022/11/09 01:28:31;;;;;;;4.97;3.53;;;;;;;5.89;86.81;96048.63;5073250;28;20048;-94
2022/11/09 01:31:01;;;;;;;5.05;2.88;;;;;;;5.86;86.67;96046.53;5073086;28;20128;-94
2022/11/09 01:33:28;;;;;;;6.78;3.40;;;;;;;5.83;86.38;96057.94;5091811;28;20036;-94
2022/11/09 01:36:01;;;;;;;5.05;2.80;;;;;;;5.82;86.71;96050.94;5093139;28;20566;-93
2022/11/09 01:38:28;;;;;;;4.38;3.03;;;;;;;5.79;86.64;96048.81;5084844;28;20128;-94
2022/11/09 01:40:55;;;;;;;5.70;3.05;;;;;;;5.76;86.05;96057.50;5093317;28;20040;-95
2022/11/09 01:43:23;;;;;;;4.30;2.78;;;;;;;5.72;86.07;96056.50;5092564;28;20052;-94
2022/11/09 01:45:53;;;;;;;5.03;3.00;;;;;;;5.70;85.92;96054.09;5074307;28;20082;-95
2022/11/09 01:48:26;;;;;;;3.97;2.75;;;;;;;5.67;85.89;96057.38;5072402;28;20051;-94
2022/11/09 01:50:58;;;;;;;5.20;2.25;;;;;;;5.60;85.65;96048.03;5072916;28;20047;-93
2022/11/09 01:53:34;;;;;;;4.47;2.53;;;;;;;5.56;85.98;96041.63;5072332;28;20402;-94
2022/11/09 01:56:05;;;;;;;4.53;2.90;;;;;;;5.52;86.18;96046.00;5072997;28;20044;-94
2022/11/09 01:58:48;;;;;;;4.75;3.05;;;;;;;5.49;86.25;96042.78;5072310;28;20041;-94
2022/11/09 02:01:17;;;;;;;4.20;2.70;;;;;;;5.46;86.05;96051.47;5072296;28;20077;-94
2022/11/09 02:03:49;;;;;;;4.65;2.75;;;;;;;5.43;86.38;96043.97;5072578;28;20131;-94
2022/11/09 02:06:20;;;;;;;6.18;2.67;;;;;;;5.39;86.69;96052.94;5072183;28;20049;-94
2022/11/09 02:08:49;;;;;;;5.30;3.17;;;;;;;5.24;87.00;96040.44;5073127;28;20036;-96
2022/11/09 02:11:19;;;;;;;4.50;3.10;;;;;;;5.28;87.29;96041.47;5072474;28;20044;-94
2022/11/09 02:13:50;;;;;;;6.90;3.38;;;;;;;5.33;87.37;96038.72;5074279;28;20051;-94
2022/11/09 02:16:18;;;;;;;5.43;3.30;;;;;;;5.38;87.96;96032.44;5092392;28;20091;-95
2022/11/09 02:18:50;;;;;;;4.78;3.08;;;;;;;5.41;88.42;96035.34;5092909;28;20036;-95
2022/11/09 02:21:19;;;;;;;4.60;2.72;;;;;;;5.43;88.32;96021.56;5092111;28;20131;-93
2022/11/09 02:23:46;;;;;;;6.05;3.28;;;;;;;5.46;88.13;96026.38;5092944;28;20496;-95
2022/11/09 02:26:18;;;;;;;6.30;2.83;;;;;;;5.47;87.82;96017.97;5092534;28;20143;-96
2022/11/09 02:28:44;;;;;;;5.45;2.90;;;;;;;5.50;87.54;96020.09;5092638;28;20506;-95
2022/11/09 02:31:15;;;;;;;5.60;2.92;;;;;;;5.52;87.39;96021.69;5092058;28;20470;-94
2022/11/09 02:33:53;;;;;;;5.85;3.33;;;;;;;5.43;86.34;96021.56;5092691;28;20054;-95
2022/11/09 02:36:22;;;;;;;6.10;3.10;;;;;;;5.42;86.43;96030.72;5092110;28;20040;-94
2022/11/09 02:38:49;;;;;;;4.68;2.78;;;;;;;5.38;86.38;96029.75;5092513;28;20048;-94
2022/11/09 02:41:17;;;;;;;4.07;2.80;;;;;;;5.36;86.13;96031.91;5092000;28;20468;-94
2022/11/09 02:43:44;;;;;;;5.60;2.95;;;;;;;5.30;85.97;96039.28;5091848;28;20055;-93
2022/11/09 02:46:11;;;;;;;5.07;3.17;;;;;;;5.28;85.70;96036.09;5071817;28;20047;-96
2022/11/09 02:48:38;;;;;;;6.35;3.15;;;;;;;5.27;85.97;96034.44;5072058;28;20041;-96
2022/11/09 02:51:05;;;;;;;6.15;2.85;;;;;;;5.22;85.75;96040.75;5071628;28;20055;-93
2022/11/09 02:53:33;;;;;;;5.32;2.80;;;;;;;5.19;86.48;96035.13;5072468;28;20536;-94
2022/11/09 02:56:01;;;;;;;4.53;2.72;;;;;;;5.20;86.90;96036.72;5072476;28;20136;-96
2022/11/09 02:58:28;;;;;;;4.68;2.63;;;;;;;5.20;86.91;96042.13;5071802;28;20048;-95
2022/11/09 03:00:54;;;;;;;3.63;2.70;;;;;;;5.19;87.09;96037.81;5072453;28;20462;-95
2022/11/09 03:03:21;;;;;;;5.25;2.80;;;;;;;5.21;87.43;96038.31;5071191;28;20052;-95
2022/11/09 03:05:47;;;;;;;4.45;2.85;;;;;;;5.18;86.76;96036.22;5072009;28;20127;-93
2022/11/09 03:08:14;;;;;;;4.85;2.88;;;;;;;5.16;87.12;96035.69;5071326;28;20068;-94
2022/11/09 03:10:42;;;;;;;4.80;2.83;;;;;;;5.13;87.25;96033.59;5072210;28;20125;-94
2022/11/09 03:13:09;;;;;;;4.43;2.78;;;;;;;5.13;87.35;96041.69;5074449;28;20123;-95
2022/11/09 03:15:37;;;;;;;4.40;3.15;;;;;;;5.11;87.16;96041.16;5074715;28;20043;-95
2022/11/09 03:18:04;;;;;;;5.97;3.10;;;;;;;5.10;87.21;96051.16;5073930;28;20519;-94
2022/11/09 03:20:30;;;;;;;5.65;3.13;;;;;;;5.10;87.39;96044.97;5074278;28;20127;-94
2022/11/09 03:22:58;;;;;;;7.13;2.78;;;;;;;5.09;87.63;96038.75;5075162;28;20128;-94
2022/11/09 03:25:24;;;;;;;4.53;2.88;;;;;;;5.10;87.63;96050.34;5075062;28;20059;-94
2022/11/09 03:27:57;;;;;;;5.38;3.13;;;;;;;5.13;87.92;96047.88;5075481;28;20407;-94
2022/11/09 03:30:24;;;;;;;6.20;2.47;;;;;;;5.12;87.61;96048.19;5074963;28;20050;-94
2022/11/09 03:32:50;;;;;;;4.43;2.70;;;;;;;5.14;88.05;96040.59;5075189;28;20131;-94
2022/11/09 03:35:17;;;;;;;5.20;3.00;;;;;;;5.14;87.64;96040.59;5074492;28;20420;-95
2022/11/09 03:37:44;;;;;;;6.35;3.20;;;;;;;5.15;87.71;96042.19;5075292;28;20068;-94
2022/11/09 03:40:11;;;;;;;4.20;2.63;;;;;;;5.16;87.71;96050.00;5074712;28;20051;-95
2022/11/09 03:42:43;;;;;;;4.65;2.78;;;;;;;5.16;87.00;96050.00;5074979;28;20047;-92
2022/11/09 03:45:12;;;;;;;4.47;2.95;;;;;;;5.13;86.34;96050.59;5074699;28;20043;-93
2022/11/09 03:47:40;;;;;;;4.50;2.70;;;;;;;5.10;86.46;96055.75;5074879;28;20042;-95
2022/11/09 03:50:08;;;;;;;4.65;2.97;;;;;;;5.07;86.84;96061.75;5074792;28;20059;-91
2022/11/09 03:52:34;;;;;;;5.65;3.10;;;;;;;5.07;87.08;96059.06;5075153;28;20041;-95
2022/11/09 03:55:01;;;;;;;4.63;2.78;;;;;;;5.07;86.98;96059.84;5057428;28;20499;-95
2022/11/09 03:57:28;;;;;;;3.85;2.60;;;;;;;5.09;87.01;96054.16;5074608;28;20396;-92
2022/11/09 03:59:54;;;;;;;4.15;2.65;;;;;;;5.08;86.81;96053.34;5074733;28;20514;-94
2022/11/09 04:02:22;;;;;;;5.22;2.60;;;;;;;5.08;86.81;96047.97;5073956;28;20049;-94
2022/11/09 04:04:49;;;;;;;3.92;2.60;;;;;;;5.08;86.97;96055.25;5074608;28;20041;-94
2022/11/09 04:07:16;;;;;;;5.35;2.20;;;;;;;5.09;86.86;96054.16;5074063;28;20053;-95
2022/11/09 04:09:42;;;;;;;3.70;2.47;;;;;;;5.09;86.74;96054.16;5074710;28;20045;-94
2022/11/09 04:12:09;;;;;;;6.18;2.75;;;;;;;5.07;87.04;96053.66;5074059;28;20040;-94
2022/11/09 04:14:35;;;;;;;5.45;2.97;;;;;;;5.10;87.20;96048.47;5075104;28;20045;-94
2022/11/09 04:17:02;;;;;;;4.45;2.63;;;;;;;5.16;87.72;96046.50;5074129;28;20041;-92
2022/11/09 04:19:30;;;;;;;3.92;2.80;;;;;;;5.17;86.88;96050.81;5074625;28;20048;-94
2022/11/09 04:21:56;;;;;;;3.88;2.72;;;;;;;5.18;87.21;96044.31;5074460;28;20052;-94
2022/11/09 04:24:23;;;;;;;4.10;2.58;;;;;;;5.16;87.42;96043.78;5074184;28;20046;-94
2022/11/09 04:26:50;;;;;;;5.55;2.83;;;;;;;5.20;87.92;96036.72;5074539;28;20043;-96
2022/11/09 04:29:16;;;;;;;4.60;2.80;;;;;;;5.20;88.03;96034.03;5073692;28;20040;-94
2022/11/09 04:31:43;;;;;;;4.30;2.60;;;;;;;5.23;87.54;96042.34;5074215;28;20499;-95
2022/11/09 04:34:09;;;;;;;4.05;2.28;;;;;;;5.25;86.95;96036.66;5074183;28;20048;-94
2022/11/09 04:36:38;;;;;;;5.68;2.70;;;;;;;5.26;86.69;96032.06;5074869;28;20068;-93
2022/11/09 04:39:04;;;;;;;3.50;2.38;;;;;;;5.28;86.84;96046.88;5057003;28;20048;-94
2022/11/09 04:41:31;;;;;;;4.13;2.70;;;;;;;5.30;86.84;96044.69;5076227;28;20044;-94
2022/11/09 04:43:57;;;;;;;4.45;2.80;;;;;;;5.32;87.14;96042.47;5079772;28;20044;-94
2022/11/09 04:46:24;;;;;;;3.40;2.53;;;;;;;5.35;86.90;96039.22;5105125;28;20044;-93
2022/11/09 04:48:51;;;;;;;4.85;2.92;;;;;;;5.35;86.42;96047.31;5104232;28;20040;-92
2022/11/09 04:51:17;;;;;;;4.72;2.90;;;;;;;5.35;86.21;96049.22;5100186;28;20044;-95
2022/11/09 04:53:46;;;;;;;4.10;2.60;;;;;;;5.34;85.88;96056.50;5095978;28;20044;-93
2022/11/09 04:56:13;;;;;;;5.43;3.00;;;;;;;5.31;86.26;96054.38;5094892;28;20052;-93
2022/11/09 04:58:40;;;;;;;5.10;2.85;;;;;;;5.27;86.35;96050.66;5077064;28;20051;-95
2022/11/09 05:01:10;;;;;;;8.20;2.80;;;;;;;5.30;86.48;96058.19;5094012;28;20047;-93
2022/11/09 05:03:37;;;;;;;3.97;2.60;;;;;;;5.24;85.61;96056.66;5093850;28;20047;-94
2022/11/09 05:06:30;;;;;;;5.47;2.92;;;;;;;5.22;86.45;96056.16;5093636;28;20048;-93
2022/11/09 05:08:52;;;;;;;5.85;3.10;;;;;;;5.21;86.92;96052.63;5094140;28;20071;-93
2022/11/09 05:11:19;;;;;;;9.18;2.92;;;;;;;5.24;86.69;96048.56;5093755;28;20055;-94
2022/11/09 05:13:46;;;;;;;6.97;3.42;;;;;;;5.23;86.29;96060.44;5093598;28;20050;-94
2022/11/09 05:16:13;;;;;;;5.97;3.60;;;;;;;5.22;86.29;96058.84;5073304;28;20048;-94
2022/11/09 05:18:40;;;;;;;6.22;3.55;;;;;;;5.21;86.58;96059.91;5073298;28;20051;-94
2022/11/09 05:21:06;;;;;;;5.38;3.17;;;;;;;5.20;86.99;96055.63;5072783;28;20051;-94
2022/11/09 05:26:18;;;;;;;4.88;2.80;;;;;;;5.12;87.03;96058.97;5073072;28;20090;-94
2022/11/09 05:28:45;;;;;;;7.70;3.20;;;;;;;5.12;86.37;96065.19;5073092;28;20047;-93
2022/11/09 05:31:11;;;;;;;7.38;3.92;;;;;;;5.09;85.80;96075.75;5072625;28;20052;-93
2022/11/09 05:33:38;;;;;;;7.45;4.13;;;;;;;5.09;86.07;96070.34;5072448;28;20045;-95
2022/11/09 05:36:05;;;;;;;10.02;5.35;;;;;;;5.07;86.52;96067.16;5055314;28;20051;-93
2022/11/09 05:38:32;;;;;;;15.00;6.53;;;;;;;5.08;86.63;96064.16;5073307;28;20060;-94
2022/11/09 05:40:58;;;;;;;13.18;6.00;;;;;;;5.08;86.74;96066.84;5073098;28;20060;-94
2022/11/09 05:43:26;;;;;;;13.57;5.05;;;;;;;5.07;86.76;96073.34;5072460;28;20050;-94
2022/11/09 05:45:53;;;;;;;11.13;5.20;;;;;;;5.06;86.53;96079.00;5075636;28;20048;-95
2022/11/09 05:48:20;;;;;;;8.23;4.68;;;;;;;5.02;86.75;96069.91;5072403;28;20247;-94
2022/11/09 05:50:46;;;;;;;8.75;4.60;;;;;;;5.04;86.98;96070.41;5073223;28;20135;-94
2022/11/09 05:53:13;;;;;;;11.10;4.68;;;;;;;5.03;87.39;96058.00;5072594;28;20136;-93
2022/11/09 05:55:40;;;;;;;11.93;5.10;;;;;;;5.01;87.49;96062.88;5072463;28;20056;-95
2022/11/09 05:58:07;;;;;;;10.48;4.93;;;;;;;4.99;87.52;96060.47;5072099;28;20045;-94
2022/11/09 06:00:36;;;;;;;10.13;4.40;;;;;;;5.00;87.75;96061.28;5073159;28;20128;-95
2022/11/09 06:03:03;;;;;;;9.35;4.55;;;;;;;4.97;87.67;96055.38;5072719;28;20052;-94
2022/11/09 06:05:29;;;;;;;11.05;4.90;;;;;;;5.00;87.37;96050.50;5072881;28;20110;-94
2022/11/09 06:08:02;;;;;;;11.68;4.68;;;;;;;5.01;86.80;96057.47;5072344;28;20054;-94
2022/11/09 06:10:28;;;;;;;10.25;4.60;;;;;;;5.00;86.34;96067.47;5092423;28;20040;-95
2022/11/09 06:12:55;;;;;;;8.25;4.07;;;;;;;5.00;86.41;96066.69;5092474;28;20405;-94
2022/11/09 06:15:23;;;;;;;8.93;4.20;;;;;;;5.00;86.29;96072.06;5077942;28;20055;-95
2022/11/09 06:17:52;;;;;;;9.88;4.18;;;;;;;5.00;86.53;96066.69;5073306;28;20047;-94
2022/11/09 06:20:19;;;;;;;8.77;4.47;;;;;;;4.98;86.78;96070.47;5071949;28;20048;-95
2022/11/09 06:22:53;;;;;;;8.85;4.20;;;;;;;4.98;86.87;96078.56;5072631;28;20115;-94
2022/11/09 06:25:19;;;;;;;7.43;3.65;;;;;;;4.95;86.27;96075.63;5071528;28;20060;-93
2022/11/09 06:27:46;;;;;;;6.88;4.05;;;;;;;4.97;86.96;96079.66;5072388;28;20048;-95
2022/11/09 06:30:13;;;;;;;8.57;4.45;;;;;;;4.96;86.10;96083.47;5071982;28;20055;-94
2022/11/09 06:32:40;;;;;;;8.30;4.70;;;;;;;4.91;85.13;96086.22;5072347;28;20529;-94
2022/11/09 06:35:09;;;;;;;7.20;3.90;;;;;;;4.88;85.33;96086.78;5071839;28;20415;-94
2022/11/09 06:37:36;;;;;;;9.27;4.53;;;;;;;4.82;85.28;96084.44;5072063;28;20045;-93
2022/11/09 06:40:03;;;;;;;8.05;4.05;;;;;;;4.82;85.38;96090.63;5071326;28;20048;-92
2022/11/09 06:42:29;;;;;;;11.93;5.53;;;;;;;4.84;85.86;96093.84;5071990;28;20411;-95
2022/11/09 06:44:56;;;;;;;13.63;6.22;;;;;;;4.94;86.53;96088.31;5084261;28;20051;-93
2022/11/09 06:47:23;;;;;;;14.80;7.47;;;;;;;5.04;86.87;96097.41;5095173;28;20040;-94
2022/11/09 06:49:49;;;;;;;16.88;7.38;;;;;;;5.06;86.86;96106.00;5096007;28;20040;-94
2022/11/09 06:52:17;;;;;;;15.57;7.43;;;;;;;5.12;86.91;96119.16;5095874;28;20063;-93
2022/11/09 06:54:52;;;;;;;11.88;6.68;;;;;;;5.15;86.74;96123.97;5096181;28;20058;-94
2022/11/09 06:57:19;;;;;;;12.50;6.43;;;;;;;5.21;87.11;96132.81;5084902;28;20141;-94
2022/11/09 06:59:45;;;;;;;12.52;5.57;;;;;;;5.29;87.32;96134.88;5096009;28;20044;-94
2022/11/09 07:02:16;;;;;;;10.40;5.05;;;;;;;5.52;86.76;96143.22;5095429;28;20047;-94
2022/11/09 07:04:42;;;;;;;6.70;4.10;;;;;;;5.57;85.55;96167.47;5095172;28;20040;-94
2022/11/09 07:07:09;;;;;;;8.02;3.50;;;;;;;5.55;86.08;96188.56;5094804;28;20044;-93
2022/11/09 07:09:37;;;;;;;7.25;3.28;;;;;;;5.73;85.74;96206.69;5095442;28;20059;-91
2022/11/09 07:12:03;;;;;;;10.65;3.60;;;;;;;5.66;86.60;96204.34;5094657;28;20052;-93
2022/11/09 07:14:30;;;;;;;7.03;3.30;;;;;;;5.74;86.51;96202.88;5088104;28;20755;-93
2022/11/09 07:16:56;;;;;;;4.95;3.13;;;;;;;5.79;85.56;96202.00;5074037;28;20052;-77
2022/11/09 07:19:23;;;;;;;5.60;3.10;;;;;;;5.78;85.31;96206.63;5072642;28;20566;-76
2022/11/09 07:21:49;;;;;;;6.75;3.22;;;;;;;5.74;85.44;96217.22;5071521;28;20503;-79
2022/11/09 07:24:16;;;;;;;6.25;2.90;;;;;;;5.69;85.79;96214.59;5071616;28;20049;-77
2022/11/09 07:26:44;;;;;;;7.80;3.47;;;;;;;5.66;87.28;96219.75;5070992;28;20410;-78
2022/11/09 07:29:10;;;;;;;6.03;3.28;;;;;;;5.75;86.75;96209.91;5072369;28;20044;-81
2022/11/09 07:31:37;;;;;;;5.40;3.22;;;;;;;5.80;85.64;96206.34;5072939;28;20062;-78
2022/11/09 07:34:03;;;;;;;5.50;3.20;;;;;;;5.94;84.95;96215.34;5071773;28;20055;-79
2022/11/09 07:36:30;;;;;;;6.75;3.35;;;;;;;6.10;83.87;96218.63;5072735;28;20067;-79
2022/11/09 07:38:56;;;;;;;5.88;3.20;;;;;;;6.22;83.71;96200.09;5072640;28;20464;-79
2022/11/09 07:41:23;;;;;;;5.80;3.72;;;;;;;6.25;83.35;96215.72;5071627;28;20044;-78
2022/11/09 07:43:51;;;;;;;5.38;3.22;;;;;;;6.37;83.08;96207.16;5073236;28;20041;-78
2022/11/09 07:46:17;;;;;;;5.85;3.10;;;;;;;6.51;82.75;96218.81;5072218;28;20055;-81
2022/11/09 07:48:44;;;;;;;6.80;2.95;;;;;;;6.60;82.16;96210.84;5071986;28;20044;-78
2022/11/09 07:51:11;;;;;;;9.05;3.38;;;;;;;6.66;82.25;96212.38;5070286;28;20044;-77
2022/11/09 07:53:38;;;;;;;5.75;3.55;;;;;;;6.73;82.65;96204.66;5072420;28;20083;-79
2022/11/09 07:56:05;;;;;;;8.27;3.50;;;;;;;6.83;82.66;96199.06;5072086;28;20044;-78
2022/11/09 07:58:33;;;;;;;5.10;2.80;;;;;;;6.95;82.75;96206.75;5071986;28;20041;-80
2022/11/09 08:01:00;;;;;;;5.28;3.25;;;;;;;7.07;82.42;96205.16;5072393;28;20078;-78
2022/11/09 08:03:27;;;;;;;5.07;3.08;;;;;;;7.21;81.75;96198.94;5071910;28;20041;-78
2022/11/09 08:05:56;;;;;;;7.47;3.40;;;;;;;7.33;80.83;96199.25;5072201;28;20051;-78
2022/11/09 08:08:22;;;;;;;6.93;3.15;;;;;;;7.42;80.45;96208.28;5071649;28;20053;-79
2022/11/09 08:10:50;;;;;;;5.53;3.42;;;;;;;7.52;79.68;96199.16;5072205;28;20040;-78
2022/11/09 08:13:17;;;;;;;7.18;3.45;;;;;;;7.61;79.66;96197.31;5071491;28;20040;-78
2022/11/09 08:15:43;;;;;;;6.63;3.35;;;;;;;7.72;79.50;96204.13;5070126;28;20040;-77
2022/11/09 08:18:13;;;;;;;6.55;3.03;;;;;;;7.81;79.34;96194.19;5071502;28;20048;-78
2022/11/09 08:20:40;;;;;;;4.88;3.20;;;;;;;7.95;78.45;96196.88;5072117;28;20040;-78
2022/11/09 08:23:07;;;;;;;5.05;3.15;;;;;;;8.10;77.30;96195.75;5071284;28;20048;-78
2022/11/09 08:25:34;;;;;;;4.72;3.00;;;;;;;8.21;76.64;96204.47;5071854;28;20055;-84
2022/11/09 08:28:02;;;;;;;6.88;3.22;;;;;;;8.29;76.61;96206.44;5071894;28;20496;-79
2022/11/09 08:30:28;;;;;;;5.30;2.70;;;;;;;8.38;76.39;96210.06;5071516;28;20402;-78
2022/11/09 08:32:55;;;;;;;5.38;2.40;;;;;;;8.45;75.84;96204.97;5071721;28;20043;-79
2022/11/09 08:35:24;;;;;;;4.18;3.08;;;;;;;8.55;74.71;96210.16;5070976;28;20529;-79
2022/11/09 08:37:52;;;;;;;4.40;2.60;;;;;;;8.67;74.20;96216.97;5071644;28;20059;-79
2022/11/09 08:40:25;;;;;;;4.70;2.30;;;;;;;8.68;72.09;96218.56;5070851;28;20049;-81
2022/11/09 08:42:52;;;;;;;4.07;2.22;;;;;;;8.79;71.12;96219.94;5071444;28;20463;-77
2022/11/09 08:45:19;;;;;;;7.72;2.53;;;;;;;8.84;71.27;96208.94;5069312;28;20059;-79
2022/11/09 08:47:46;;;;;;;5.18;2.30;;;;;;;8.96;71.01;96213.78;5071465;28;20402;-79
2022/11/09 08:50:15;;;;;;;5.57;2.95;;;;;;;9.00;68.87;96209.34;5070659;28;20048;-81
2022/11/09 08:52:42;;;;;;;4.75;2.63;;;;;;;8.95;68.21;96213.00;5071262;28;20044;-77
2022/11/09 08:55:10;;;;;;;4.00;2.90;;;;;;;9.14;67.67;96215.50;5070616;28;20052;-77
2022/11/09 08:57:36;;;;;;;4.22;2.42;;;;;;;9.29;68.10;96217.00;5071221;28;20058;-78
2022/11/09 09:00:04;;;;;;;4.90;2.92;;;;;;;9.47;68.48;96217.88;5071002;28;20053;-79
2022/11/09 09:02:31;;;;;;;3.38;2.50;;;;;;;9.68;68.86;96227.06;5071254;28;20055;-79
2022/11/09 09:04:57;;;;;;;4.05;2.50;;;;;;;9.85;68.58;96229.03;5070837;28;20048;-78
2022/11/09 09:07:24;;;;;;;5.22;3.28;;;;;;;10.00;67.39;96217.72;5070755;28;20045;-81
2022/11/09 09:09:52;;;;;;;4.10;2.50;;;;;;;10.13;67.71;96218.72;5070332;28;20535;-78
2022/11/09 09:12:18;;;;;;;4.80;2.92;;;;;;;10.22;68.52;96233.09;5070697;28;20049;-78
2022/11/09 09:14:45;;;;;;;6.20;3.15;;;;;;;10.28;67.82;96234.59;5071343;28;20052;-79
2022/11/09 09:17:11;;;;;;;4.90;2.58;;;;;;;10.26;66.73;96233.31;5070419;28;20048;-84
2022/11/09 09:19:38;;;;;;;5.90;3.15;;;;;;;10.30;66.53;96239.72;5070925;28;20045;-84
2022/11/09 09:22:04;;;;;;;7.13;3.58;;;;;;;10.29;66.66;96249.03;5070471;28;20709;-84
2022/11/09 09:24:31;;;;;;;8.40;2.35;;;;;;;10.32;66.65;96248.38;5070678;28;20049;-77
2022/11/09 09:26:59;;;;;;;3.85;1.98;;;;;;;10.34;65.95;96241.50;5070867;28;20051;-76
2022/11/09 09:29:25;;;;;;;5.35;2.58;;;;;;;10.35;66.57;96247.75;5070309;28;20455;-79
2022/11/09 09:31:52;;;;;;;5.70;2.47;;;;;;;10.39;67.38;96249.50;5070885;28;20043;-78
2022/11/09 09:34:18;;;;;;;3.15;2.17;;;;;;;10.33;66.69;96247.25;5070239;28;20495;-79
2022/11/09 09:36:45;;;;;;;4.90;2.30;;;;;;;10.39;67.22;96248.72;5070754;28;20045;-77
2022/11/09 09:39:12;;;;;;;3.45;2.00;;;;;;;10.46;67.68;96249.03;5070079;28;20467;-77
2022/11/09 09:41:42;;;;;;;5.80;2.10;;;;;;;10.44;68.89;96251.28;5070355;28;20109;-77
2022/11/09 09:44:23;;;;;;;4.97;2.08;;;;;;;10.55;68.32;96262.66;5070087;28;20041;-77
2022/11/09 09:46:55;;;;;;;6.85;2.22;;;;;;;10.53;67.55;96262.94;5070386;28;20044;-78
2022/11/09 09:49:26;;;;;;;2.97;1.93;;;;;;;10.54;67.66;96261.81;5069715;28;20400;-78
2022/11/09 09:51:59;;;;;;;6.18;2.50;;;;;;;10.59;67.51;96261.66;5070468;28;20782;-77
2022/11/09 09:54:29;;;;;;;;;;;;;;;10.65;67.45;96257.69;5070147;28;20124;-78
2022/11/09 09:56:59;;;;;;;4.55;2.78;;;;;;;10.70;67.98;96265.69;5070190;28;19921;-78
2022/11/09 09:59:43;;;;;;;5.65;2.22;;;;;;;10.71;68.09;96253.69;5069833;28;20040;-80
2022/11/09 10:02:20;;;;;;;4.63;2.28;;;;;;;10.82;67.50;96245.19;5069743;28;20080;-77
2022/11/09 10:04:47;;;;;;;3.97;2.30;;;;;;;10.90;67.11;96241.63;5070187;28;20052;-78
2022/11/09 10:07:21;;;;;;;3.63;2.13;;;;;;;11.02;67.42;96249.16;5069835;28;20040;-78
2022/11/09 10:10:16;;;;;;;5.78;2.33;;;;;;;11.09;66.85;96246.75;5070037;28;20048;-78
2022/11/09 10:13:12;;;;;;;4.47;2.28;;;;;;;11.16;66.87;96244.31;5070361;28;20036;-78
2022/11/09 10:15:47;;;;;;;4.43;2.20;;;;;;;11.27;66.86;96245.56;5070327;28;20040;-77
2022/11/09 10:18:32;;;;;;;4.53;2.65;;;;;;;11.38;66.30;96246.00;5069632;28;20059;-77
2022/11/09 10:21:15;;;;;;;6.07;3.45;;;;;;;11.42;65.61;96233.34;5072637;28;20045;-79
2022/11/09 10:23:53;;;;;;;3.60;2.13;;;;;;;11.60;64.23;96231.38;5074192;28;20044;-78
2022/11/09 10:26:27;;;;;;;5.43;2.40;;;;;;;11.63;63.93;96239.66;5073348;28;20048;-80
2022/11/09 10:28:58;;;;;;;5.10;2.50;;;;;;;11.90;65.15;96235.75;5074213;28;20036;-79
2022/11/09 10:31:32;;;;;;;5.10;2.60;;;;;;;12.05;63.41;96242.53;5073432;28;20075;-77
2022/11/09 10:34:03;;;;;;;7.47;2.97;;;;;;;12.40;62.65;96236.88;5073871;28;20036;-78
2022/11/09 10:36:40;;;;;;;6.63;2.53;;;;;;;12.92;61.88;96226.31;5073860;28;20071;-78
2022/11/09 10:39:13;;;;;;;8.13;2.65;;;;;;;13.14;60.96;96225.13;5073170;28;20052;-78
2022/11/09 10:41:43;;;;;;;5.55;2.30;;;;;;;13.25;60.59;96231.78;5073854;28;20052;-77
2022/11/09 10:44:14;;;;;;;4.00;2.20;;;;;;;13.36;60.44;96212.22;5073443;28;20048;-78
2022/11/09 10:47:04;;;;;;;5.85;2.83;;;;;;;13.52;60.06;96224.09;5073662;28;20048;-82
2022/11/09 10:49:32;;;;;;;6.25;1.90;;;;;;;13.53;58.72;96212.84;5073200;28;20037;-78
2022/11/09 10:51:59;;;;;;;4.10;2.03;;;;;;;13.44;57.80;96214.06;5073649;28;20044;-80
2022/11/09 10:54:28;;;;;;;4.90;3.10;;;;;;;13.52;58.19;96210.41;5072994;28;20041;-79
2022/11/09 10:57:03;;;;;;;6.28;2.30;;;;;;;13.54;56.93;96213.63;5073545;28;20041;-78
2022/11/09 10:59:39;;;;;;;6.10;2.35;;;;;;;13.45;57.03;96199.25;5073025;28;20036;-78
2022/11/09 11:02:39;;;;;;;6.03;2.28;;;;;;;13.59;57.91;96202.47;5073115;28;20075;-78
2022/11/09 11:05:29;;;;;;;3.72;2.08;;;;;;;13.62;57.89;96199.03;5072818;28;20052;-78
2022/11/09 11:07:56;;;;;;;6.63;2.88;;;;;;;13.61;58.36;96191.97;5073251;28;20513;-78
2022/11/09 11:10:24;;;;;;;5.40;2.38;;;;;;;13.76;57.48;96198.72;5072686;28;20121;-78
2022/11/09 11:13:22;;;;;;;5.60;2.30;;;;;;;14.18;56.86;96192.97;5073266;28;20044;-77
2022/11/09 11:15:49;;;;;;;7.07;2.22;;;;;;;14.37;55.81;96190.44;5056997;28;20044;-77
2022/11/09 11:18:19;;;;;;;5.43;2.55;;;;;;;14.57;55.67;96183.22;5072829;28;20060;-77
2022/11/09 11:20:47;;;;;;;5.97;2.25;;;;;;;14.76;55.05;96185.31;5073175;28;20479;-78
2022/11/09 11:23:16;;;;;;;4.18;2.00;;;;;;;14.89;52.63;96178.63;5072590;28;20056;-78
2022/11/09 11:26:03;;;;;;;5.32;1.65;;;;;;;15.28;52.19;96184.34;5073249;28;20043;-79
2022/11/09 11:28:38;;;;;;;4.65;2.00;;;;;;;15.74;49.71;96184.75;5073013;28;20041;-78
2022/11/09 11:31:11;;;;;;;3.38;1.83;;;;;;;16.27;50.64;96188.75;5072366;28;20049;-79
2022/11/09 11:33:38;;;;;;;3.85;1.70;;;;;;;16.53;50.06;96181.84;5072659;28;20518;-80
2022/11/09 11:36:17;;;;;;;6.57;2.33;;;;;;;16.55;49.59;96185.00;5072578;28;20052;-79
2022/11/09 11:38:55;;;;;;;5.35;1.90;;;;;;;16.49;49.00;96175.47;5072867;28;20041;-77
2022/11/09 11:41:45;;;;;;;5.60;2.40;;;;;;;16.82;49.47;96180.50;5072117;28;20057;-80
2022/11/09 11:44:25;;;;;;;6.15;2.00;;;;;;;16.92;48.15;96164.22;5076614;28;20437;-81
2022/11/09 11:47:01;;;;;;;3.03;1.83;;;;;;;16.96;48.22;96167.03;5093089;28;20051;-80
2022/11/09 11:49:52;;;;;;;4.28;1.83;;;;;;;17.07;49.00;96167.22;5092458;28;20047;-80